sensor_id;sensor_type;location;lat;lon;timestamp;temperature;humidity
72772;SHT30;60894;42.544;1.516;2023-11-21T00:01:22;9.62;53.75
72772;SHT30;60894;42.544;1.516;2023-11-21T00:03:50;9.56;53.98
72772;SHT30;60894;42.544;1.516;2023-11-21T00:06:20;9.47;54.25
72772;SHT30;60894;42.544;1.516;2023-11-21T00:08:47;9.39;54.30
72772;SHT30;60894;42.544;1.516;2023-11-21T00:11:14;9.25;54.30
72772;SHT30;60894;42.544;1.516;2023-11-21T00:13:40;9.18;54.92
72772;SHT30;60894;42.544;1.516;2023-11-21T00:16:08;9.12;54.80
72772;SHT30;60894;42.544;1.516;2023-11-21T00:18:35;9.05;55.00
72772;SHT30;60894;42.544;1.516;2023-11-21T00:21:03;8.98;54.96
72772;SHT30;60894;42.544;1.516;2023-11-21T00:23:30;8.97;55.27
72772;SHT30;60894;42.544;1.516;2023-11-21T00:25:57;8.89;55.20
72772;SHT30;60894;42.544;1.516;2023-11-21T00:28:25;8.89;55.38
72772;SHT30;60894;42.544;1.516;2023-11-21T00:30:52;8.87;54.84
72772;SHT30;60894;42.544;1.516;2023-11-21T00:33:19;8.75;55.31
72772;SHT30;60894;42.544;1.516;2023-11-21T00:35:46;8.67;55.93
72772;SHT30;60894;42.544;1.516;2023-11-21T00:38:15;8.57;56.27
72772;SHT30;60894;42.544;1.516;2023-11-21T00:40:45;8.49;56.40
72772;SHT30;60894;42.544;1.516;2023-11-21T00:43:12;8.49;56.44
72772;SHT30;60894;42.544;1.516;2023-11-21T00:45:39;8.50;55.73
72772;SHT30;60894;42.544;1.516;2023-11-21T00:48:06;8.54;55.04
72772;SHT30;60894;42.544;1.516;2023-11-21T00:50:33;8.60;54.71
72772;SHT30;60894;42.544;1.516;2023-11-21T00:53:00;8.56;54.08
72772;SHT30;60894;42.544;1.516;2023-11-21T00:55:29;8.49;55.02
72772;SHT30;60894;42.544;1.516;2023-11-21T00:57:57;8.53;54.51
72772;SHT30;60894;42.544;1.516;2023-11-21T01:00:23;8.47;54.73
72772;SHT30;60894;42.544;1.516;2023-11-21T01:02:50;8.40;54.10
72772;SHT30;60894;42.544;1.516;2023-11-21T01:05:17;8.33;54.23
72772;SHT30;60894;42.544;1.516;2023-11-21T01:07:45;8.22;53.29
72772;SHT30;60894;42.544;1.516;2023-11-21T01:10:12;8.29;53.09
72772;SHT30;60894;42.544;1.516;2023-11-21T01:12:41;8.25;52.45
72772;SHT30;60894;42.544;1.516;2023-11-21T01:15:08;8.23;52.35
72772;SHT30;60894;42.544;1.516;2023-11-21T01:17:37;8.25;52.24
72772;SHT30;60894;42.544;1.516;2023-11-21T01:20:05;8.28;52.14
72772;SHT30;60894;42.544;1.516;2023-11-21T01:22:37;8.30;51.84
72772;SHT30;60894;42.544;1.516;2023-11-21T01:25:05;8.36;51.47
72772;SHT30;60894;42.544;1.516;2023-11-21T01:27:33;8.16;50.81
72772;SHT30;60894;42.544;1.516;2023-11-21T01:30:03;8.14;51.12
72772;SHT30;60894;42.544;1.516;2023-11-21T01:32:30;8.19;50.89
72772;SHT30;60894;42.544;1.516;2023-11-21T01:34:57;8.17;50.48
72772;SHT30;60894;42.544;1.516;2023-11-21T01:37:24;8.17;50.22
72772;SHT30;60894;42.544;1.516;2023-11-21T01:39:53;8.16;50.34
72772;SHT30;60894;42.544;1.516;2023-11-21T01:42:20;8.22;49.83
72772;SHT30;60894;42.544;1.516;2023-11-21T01:44:47;8.17;50.08
72772;SHT30;60894;42.544;1.516;2023-11-21T01:47:16;8.10;49.55
72772;SHT30;60894;42.544;1.516;2023-11-21T01:49:44;8.09;49.76
72772;SHT30;60894;42.544;1.516;2023-11-21T01:52:12;8.00;50.03
72772;SHT30;60894;42.544;1.516;2023-11-21T01:54:39;8.03;49.29
72772;SHT30;60894;42.544;1.516;2023-11-21T01:57:08;8.00;49.68
72772;SHT30;60894;42.544;1.516;2023-11-21T01:59:36;7.96;49.25
72772;SHT30;60894;42.544;1.516;2023-11-21T02:02:04;7.98;49.08
72772;SHT30;60894;42.544;1.516;2023-11-21T02:04:33;7.96;48.42
72772;SHT30;60894;42.544;1.516;2023-11-21T02:07:00;7.95;49.55
72772;SHT30;60894;42.544;1.516;2023-11-21T02:09:28;7.95;49.20
72772;SHT30;60894;42.544;1.516;2023-11-21T02:11:56;7.99;45.19
72772;SHT30;60894;42.544;1.516;2023-11-21T02:14:24;7.86;44.64
72772;SHT30;60894;42.544;1.516;2023-11-21T02:16:53;7.86;43.51
72772;SHT30;60894;42.544;1.516;2023-11-21T02:19:21;7.82;43.58
72772;SHT30;60894;42.544;1.516;2023-11-21T02:21:53;7.85;40.83
72772;SHT30;60894;42.544;1.516;2023-11-21T02:24:22;7.81;39.89
72772;SHT30;60894;42.544;1.516;2023-11-21T02:26:49;7.72;39.94
72772;SHT30;60894;42.544;1.516;2023-11-21T02:29:17;7.79;37.33
72772;SHT30;60894;42.544;1.516;2023-11-21T02:31:47;7.72;35.75
72772;SHT30;60894;42.544;1.516;2023-11-21T02:34:14;7.65;36.29
72772;SHT30;60894;42.544;1.516;2023-11-21T02:36:41;7.65;36.59
72772;SHT30;60894;42.544;1.516;2023-11-21T02:39:09;7.71;36.09
72772;SHT30;60894;42.544;1.516;2023-11-21T02:41:38;7.72;37.19
72772;SHT30;60894;42.544;1.516;2023-11-21T02:44:05;7.67;37.51
72772;SHT30;60894;42.544;1.516;2023-11-21T02:46:33;7.72;38.29
72772;SHT30;60894;42.544;1.516;2023-11-21T02:49:00;7.72;38.89
72772;SHT30;60894;42.544;1.516;2023-11-21T02:51:27;7.74;40.14
72772;SHT30;60894;42.544;1.516;2023-11-21T02:53:54;7.78;40.27
72772;SHT30;60894;42.544;1.516;2023-11-21T02:56:24;7.77;40.70
72772;SHT30;60894;42.544;1.516;2023-11-21T02:58:55;7.81;40.29
72772;SHT30;60894;42.544;1.516;2023-11-21T03:01:22;7.75;40.60
72772;SHT30;60894;42.544;1.516;2023-11-21T03:03:50;7.68;41.35
72772;SHT30;60894;42.544;1.516;2023-11-21T03:06:18;7.60;41.90
72772;SHT30;60894;42.544;1.516;2023-11-21T03:08:45;7.48;42.03
72772;SHT30;60894;42.544;1.516;2023-11-21T03:11:12;7.50;42.48
72772;SHT30;60894;42.544;1.516;2023-11-21T03:13:39;7.48;43.16
72772;SHT30;60894;42.544;1.516;2023-11-21T03:16:09;7.48;42.78
72772;SHT30;60894;42.544;1.516;2023-11-21T03:18:37;7.55;42.48
72772;SHT30;60894;42.544;1.516;2023-11-21T03:21:04;7.58;42.45
72772;SHT30;60894;42.544;1.516;2023-11-21T03:23:31;7.44;43.37
72772;SHT30;60894;42.544;1.516;2023-11-21T03:25:58;7.44;43.80
72772;SHT30;60894;42.544;1.516;2023-11-21T03:28:25;7.37;44.35
72772;SHT30;60894;42.544;1.516;2023-11-21T03:30:53;7.28;44.94
72772;SHT30;60894;42.544;1.516;2023-11-21T03:33:22;7.21;45.59
72772;SHT30;60894;42.544;1.516;2023-11-21T03:35:48;7.11;45.96
72772;SHT30;60894;42.544;1.516;2023-11-21T03:38:15;7.14;46.91
72772;SHT30;60894;42.544;1.516;2023-11-21T03:40:42;6.99;47.32
72772;SHT30;60894;42.544;1.516;2023-11-21T03:43:09;6.83;48.79
72772;SHT30;60894;42.544;1.516;2023-11-21T03:45:36;6.69;48.92
72772;SHT30;60894;42.544;1.516;2023-11-21T03:48:06;6.65;49.13
72772;SHT30;60894;42.544;1.516;2023-11-21T03:50:34;6.61;48.78
72772;SHT30;60894;42.544;1.516;2023-11-21T03:53:01;6.59;48.23
72772;SHT30;60894;42.544;1.516;2023-11-21T03:55:29;6.50;48.55
72772;SHT30;60894;42.544;1.516;2023-11-21T03:57:57;6.55;48.40
72772;SHT30;60894;42.544;1.516;2023-11-21T04:00:24;6.49;48.41
72772;SHT30;60894;42.544;1.516;2023-11-21T04:02:52;6.53;48.43
72772;SHT30;60894;42.544;1.516;2023-11-21T04:05:20;6.64;48.35
72772;SHT30;60894;42.544;1.516;2023-11-21T04:07:49;6.75;48.42
72772;SHT30;60894;42.544;1.516;2023-11-21T04:10:16;6.75;50.03
72772;SHT30;60894;42.544;1.516;2023-11-21T04:12:43;6.65;50.05
72772;SHT30;60894;42.544;1.516;2023-11-21T04:15:11;6.69;50.45
72772;SHT30;60894;42.544;1.516;2023-11-21T04:17:38;6.72;50.36
72772;SHT30;60894;42.544;1.516;2023-11-21T04:20:07;6.76;50.16
72772;SHT30;60894;42.544;1.516;2023-11-21T04:22:36;6.73;50.89
72772;SHT30;60894;42.544;1.516;2023-11-21T04:25:08;6.79;51.77
72772;SHT30;60894;42.544;1.516;2023-11-21T04:27:35;6.76;52.91
72772;SHT30;60894;42.544;1.516;2023-11-21T04:30:03;6.66;52.93
72772;SHT30;60894;42.544;1.516;2023-11-21T04:32:30;6.69;52.92
72772;SHT30;60894;42.544;1.516;2023-11-21T04:34:57;6.65;52.49
72772;SHT30;60894;42.544;1.516;2023-11-21T04:37:24;6.61;52.00
72772;SHT30;60894;42.544;1.516;2023-11-21T04:39:51;6.50;51.89
72772;SHT30;60894;42.544;1.516;2023-11-21T04:42:19;6.64;52.56
72772;SHT30;60894;42.544;1.516;2023-11-21T04:44:47;6.62;53.02
72772;SHT30;60894;42.544;1.516;2023-11-21T04:47:14;6.66;53.16
72772;SHT30;60894;42.544;1.516;2023-11-21T04:49:42;6.38;54.54
72772;SHT30;60894;42.544;1.516;2023-11-21T04:52:10;6.39;55.18
72772;SHT30;60894;42.544;1.516;2023-11-21T04:54:37;6.34;55.71
72772;SHT30;60894;42.544;1.516;2023-11-21T04:57:05;6.28;56.88
72772;SHT30;60894;42.544;1.516;2023-11-21T04:59:34;6.32;56.37
72772;SHT30;60894;42.544;1.516;2023-11-21T05:02:01;6.38;56.23
72772;SHT30;60894;42.544;1.516;2023-11-21T05:04:30;6.45;54.62
72772;SHT30;60894;42.544;1.516;2023-11-21T05:06:57;6.46;54.87
72772;SHT30;60894;42.544;1.516;2023-11-21T05:09:26;6.61;54.93
72772;SHT30;60894;42.544;1.516;2023-11-21T05:11:54;6.73;53.31
72772;SHT30;60894;42.544;1.516;2023-11-21T05:14:21;6.86;52.61
72772;SHT30;60894;42.544;1.516;2023-11-21T05:16:49;6.97;52.68
72772;SHT30;60894;42.544;1.516;2023-11-21T05:19:17;6.96;53.13
72772;SHT30;60894;42.544;1.516;2023-11-21T05:21:44;7.01;53.99
72772;SHT30;60894;42.544;1.516;2023-11-21T05:24:11;7.09;54.22
72772;SHT30;60894;42.544;1.516;2023-11-21T05:26:38;6.99;55.43
72772;SHT30;60894;42.544;1.516;2023-11-21T05:29:05;7.03;56.30
72772;SHT30;60894;42.544;1.516;2023-11-21T05:31:34;7.01;56.38
72772;SHT30;60894;42.544;1.516;2023-11-21T05:34:03;6.93;56.22
72772;SHT30;60894;42.544;1.516;2023-11-21T05:36:30;6.85;57.23
72772;SHT30;60894;42.544;1.516;2023-11-21T05:38:57;6.78;58.28
72772;SHT30;60894;42.544;1.516;2023-11-21T05:41:24;6.78;58.86
72772;SHT30;60894;42.544;1.516;2023-11-21T05:43:51;6.75;59.45
72772;SHT30;60894;42.544;1.516;2023-11-21T05:46:19;6.69;59.85
72772;SHT30;60894;42.544;1.516;2023-11-21T05:48:47;6.66;59.75
72772;SHT30;60894;42.544;1.516;2023-11-21T05:51:15;6.68;59.49
72772;SHT30;60894;42.544;1.516;2023-11-21T05:53:43;6.66;59.45
72772;SHT30;60894;42.544;1.516;2023-11-21T05:56:10;6.73;58.69
72772;SHT30;60894;42.544;1.516;2023-11-21T05:58:37;6.73;58.43
72772;SHT30;60894;42.544;1.516;2023-11-21T06:01:05;6.72;59.02
72772;SHT30;60894;42.544;1.516;2023-11-21T06:03:33;6.68;59.61
72772;SHT30;60894;42.544;1.516;2023-11-21T06:06:00;6.68;59.92
72772;SHT30;60894;42.544;1.516;2023-11-21T06:08:28;6.62;60.27
72772;SHT30;60894;42.544;1.516;2023-11-21T06:10:55;6.61;61.11
72772;SHT30;60894;42.544;1.516;2023-11-21T06:13:22;6.68;60.31
72772;SHT30;60894;42.544;1.516;2023-11-21T06:15:50;6.61;60.65
72772;SHT30;60894;42.544;1.516;2023-11-21T06:18:17;6.72;60.28
72772;SHT30;60894;42.544;1.516;2023-11-21T06:20:45;6.62;60.09
72772;SHT30;60894;42.544;1.516;2023-11-21T06:23:12;6.58;60.77
72772;SHT30;60894;42.544;1.516;2023-11-21T06:25:41;6.46;60.96
72772;SHT30;60894;42.544;1.516;2023-11-21T06:28:07;6.39;61.54
72772;SHT30;60894;42.544;1.516;2023-11-21T06:30:34;6.35;62.14
72772;SHT30;60894;42.544;1.516;2023-11-21T06:33:01;6.45;61.15
72772;SHT30;60894;42.544;1.516;2023-11-21T06:35:28;6.44;62.16
72772;SHT30;60894;42.544;1.516;2023-11-21T06:37:58;6.48;61.15
72772;SHT30;60894;42.544;1.516;2023-11-21T06:40:25;6.55;60.88
72772;SHT30;60894;42.544;1.516;2023-11-21T06:42:53;6.59;61.75
72772;SHT30;60894;42.544;1.516;2023-11-21T06:45:20;6.44;62.44
72772;SHT30;60894;42.544;1.516;2023-11-21T06:47:47;6.41;63.53
72772;SHT30;60894;42.544;1.516;2023-11-21T06:50:15;6.38;64.12
72772;SHT30;60894;42.544;1.516;2023-11-21T06:52:42;6.41;64.18
72772;SHT30;60894;42.544;1.516;2023-11-21T06:55:09;6.45;64.68
72772;SHT30;60894;42.544;1.516;2023-11-21T06:57:36;6.41;63.63
72772;SHT30;60894;42.544;1.516;2023-11-21T07:00:06;6.39;64.38
72772;SHT30;60894;42.544;1.516;2023-11-21T07:02:34;6.27;63.82
72772;SHT30;60894;42.544;1.516;2023-11-21T07:05:01;6.32;64.32
72772;SHT30;60894;42.544;1.516;2023-11-21T07:07:28;6.53;62.85
72772;SHT30;60894;42.544;1.516;2023-11-21T07:09:55;6.38;64.24
72772;SHT30;60894;42.544;1.516;2023-11-21T07:12:22;6.42;63.80
72772;SHT30;60894;42.544;1.516;2023-11-21T07:14:51;6.53;62.86
72772;SHT30;60894;42.544;1.516;2023-11-21T07:17:20;6.62;63.64
72772;SHT30;60894;42.544;1.516;2023-11-21T07:19:48;6.73;63.71
72772;SHT30;60894;42.544;1.516;2023-11-21T07:22:15;6.82;61.79
72772;SHT30;60894;42.544;1.516;2023-11-21T07:24:48;6.89;61.72
72772;SHT30;60894;42.544;1.516;2023-11-21T07:27:15;6.90;62.12
72772;SHT30;60894;42.544;1.516;2023-11-21T07:29:42;7.00;62.19
72772;SHT30;60894;42.544;1.516;2023-11-21T07:32:09;6.99;62.82
72772;SHT30;60894;42.544;1.516;2023-11-21T07:34:37;6.97;63.26
72772;SHT30;60894;42.544;1.516;2023-11-21T07:37:04;7.03;63.54
72772;SHT30;60894;42.544;1.516;2023-11-21T07:39:31;7.03;64.34
72772;SHT30;60894;42.544;1.516;2023-11-21T07:41:58;7.14;65.02
72772;SHT30;60894;42.544;1.516;2023-11-21T07:44:25;7.11;64.66
72772;SHT30;60894;42.544;1.516;2023-11-21T07:46:52;7.13;64.56
72772;SHT30;60894;42.544;1.516;2023-11-21T07:49:22;7.01;64.24
72772;SHT30;60894;42.544;1.516;2023-11-21T07:51:51;7.00;65.22
72772;SHT30;60894;42.544;1.516;2023-11-21T07:54:18;6.97;64.50
72772;SHT30;60894;42.544;1.516;2023-11-21T07:56:46;6.97;64.66
72772;SHT30;60894;42.544;1.516;2023-11-21T07:59:13;6.93;65.88
72772;SHT30;60894;42.544;1.516;2023-11-21T08:01:40;6.85;66.84
72772;SHT30;60894;42.544;1.516;2023-11-21T08:04:08;6.82;66.78
72772;SHT30;60894;42.544;1.516;2023-11-21T08:06:35;6.72;67.69
72772;SHT30;60894;42.544;1.516;2023-11-21T08:09:04;6.69;67.38
72772;SHT30;60894;42.544;1.516;2023-11-21T08:11:31;6.79;68.05
72772;SHT30;60894;42.544;1.516;2023-11-21T08:13:59;6.86;68.73
72772;SHT30;60894;42.544;1.516;2023-11-21T08:16:26;6.89;67.46
72772;SHT30;60894;42.544;1.516;2023-11-21T08:18:53;7.06;68.06
72772;SHT30;60894;42.544;1.516;2023-11-21T08:21:21;7.07;67.85
72772;SHT30;60894;42.544;1.516;2023-11-21T08:23:49;7.16;68.16
72772;SHT30;60894;42.544;1.516;2023-11-21T08:26:21;7.17;68.63
72772;SHT30;60894;42.544;1.516;2023-11-21T08:28:48;7.19;66.75
72772;SHT30;60894;42.544;1.516;2023-11-21T08:31:15;7.19;65.64
72772;SHT30;60894;42.544;1.516;2023-11-21T08:33:42;7.16;68.60
72772;SHT30;60894;42.544;1.516;2023-11-21T08:36:10;7.24;67.40
72772;SHT30;60894;42.544;1.516;2023-11-21T08:38:37;7.28;66.98
72772;SHT30;60894;42.544;1.516;2023-11-21T08:41:05;7.27;67.25
72772;SHT30;60894;42.544;1.516;2023-11-21T08:43:36;7.31;67.16
72772;SHT30;60894;42.544;1.516;2023-11-21T08:46:05;7.30;67.86
72772;SHT30;60894;42.544;1.516;2023-11-21T08:48:35;7.32;66.95
72772;SHT30;60894;42.544;1.516;2023-11-21T08:51:02;7.37;68.50
72772;SHT30;60894;42.544;1.516;2023-11-21T08:53:29;7.37;67.56
72772;SHT30;60894;42.544;1.516;2023-11-21T08:55:56;7.47;66.36
72772;SHT30;60894;42.544;1.516;2023-11-21T08:58:24;7.51;65.64
72772;SHT30;60894;42.544;1.516;2023-11-21T09:00:52;7.60;68.03
72772;SHT30;60894;42.544;1.516;2023-11-21T09:03:19;7.62;65.91
72772;SHT30;60894;42.544;1.516;2023-11-21T09:05:46;7.54;66.59
72772;SHT30;60894;42.544;1.516;2023-11-21T09:08:13;7.48;68.51
72772;SHT30;60894;42.544;1.516;2023-11-21T09:10:40;7.50;69.20
72772;SHT30;60894;42.544;1.516;2023-11-21T09:13:08;7.47;69.33
72772;SHT30;60894;42.544;1.516;2023-11-21T09:15:35;7.51;69.18
72772;SHT30;60894;42.544;1.516;2023-11-21T09:18:04;7.43;70.03
72772;SHT30;60894;42.544;1.516;2023-11-21T09:20:31;7.35;69.48
72772;SHT30;60894;42.544;1.516;2023-11-21T09:22:58;7.19;69.84
72772;SHT30;60894;42.544;1.516;2023-11-21T09:25:25;7.26;70.50
72772;SHT30;60894;42.544;1.516;2023-11-21T09:27:54;7.27;69.96
72772;SHT30;60894;42.544;1.516;2023-11-21T09:30:21;7.44;71.23
72772;SHT30;60894;42.544;1.516;2023-11-21T09:32:50;7.48;71.47
72772;SHT30;60894;42.544;1.516;2023-11-21T09:35:18;7.62;71.74
72772;SHT30;60894;42.544;1.516;2023-11-21T09:37:45;7.89;70.91
72772;SHT30;60894;42.544;1.516;2023-11-21T09:40:13;7.99;70.45
72772;SHT30;60894;42.544;1.516;2023-11-21T09:42:47;7.92;70.72
72772;SHT30;60894;42.544;1.516;2023-11-21T09:45:20;7.89;70.67
72772;SHT30;60894;42.544;1.516;2023-11-21T09:47:49;7.93;70.91
72772;SHT30;60894;42.544;1.516;2023-11-21T09:50:19;7.95;71.07
72772;SHT30;60894;42.544;1.516;2023-11-21T09:52:53;7.86;69.65
72772;SHT30;60894;42.544;1.516;2023-11-21T09:55:26;7.83;70.41
72772;SHT30;60894;42.544;1.516;2023-11-21T09:57:56;7.81;70.07
72772;SHT30;60894;42.544;1.516;2023-11-21T10:00:24;7.91;70.36
72772;SHT30;60894;42.544;1.516;2023-11-21T10:02:52;7.85;68.64
72772;SHT30;60894;42.544;1.516;2023-11-21T10:05:21;7.99;71.30
72772;SHT30;60894;42.544;1.516;2023-11-21T10:07:49;8.06;70.89
72772;SHT30;60894;42.544;1.516;2023-11-21T10:10:18;8.12;70.36
72772;SHT30;60894;42.544;1.516;2023-11-21T10:12:49;8.12;70.28
72772;SHT30;60894;42.544;1.516;2023-11-21T10:15:21;8.12;70.92
72772;SHT30;60894;42.544;1.516;2023-11-21T10:17:49;8.19;69.37
72772;SHT30;60894;42.544;1.516;2023-11-21T10:20:20;8.23;70.24
72772;SHT30;60894;42.544;1.516;2023-11-21T10:22:47;8.20;70.03
72772;SHT30;60894;42.544;1.516;2023-11-21T10:25:14;8.14;71.36
72772;SHT30;60894;42.544;1.516;2023-11-21T10:27:42;7.96;70.58
72772;SHT30;60894;42.544;1.516;2023-11-21T10:30:10;7.55;69.37
72772;SHT30;60894;42.544;1.516;2023-11-21T10:32:38;7.44;70.97
72772;SHT30;60894;42.544;1.516;2023-11-21T10:35:06;7.44;71.38
72772;SHT30;60894;42.544;1.516;2023-11-21T10:37:37;7.60;72.20
72772;SHT30;60894;42.544;1.516;2023-11-21T10:40:06;7.77;73.72
72772;SHT30;60894;42.544;1.516;2023-11-21T10:42:34;7.81;74.41
72772;SHT30;60894;42.544;1.516;2023-11-21T10:45:03;7.91;74.06
72772;SHT30;60894;42.544;1.516;2023-11-21T10:47:35;7.77;73.47
72772;SHT30;60894;42.544;1.516;2023-11-21T10:50:04;7.64;73.89
72772;SHT30;60894;42.544;1.516;2023-11-21T10:52:34;7.52;75.06
72772;SHT30;60894;42.544;1.516;2023-11-21T10:55:18;7.69;76.62
72772;SHT30;60894;42.544;1.516;2023-11-21T10:57:48;7.72;76.29
72772;SHT30;60894;42.544;1.516;2023-11-21T11:00:16;7.85;75.61
72772;SHT30;60894;42.544;1.516;2023-11-21T11:02:46;7.77;75.25
72772;SHT30;60894;42.544;1.516;2023-11-21T11:05:15;7.83;74.50
72772;SHT30;60894;42.544;1.516;2023-11-21T11:07:48;8.10;74.21
72772;SHT30;60894;42.544;1.516;2023-11-21T11:10:21;8.22;71.98
72772;SHT30;60894;42.544;1.516;2023-11-21T11:12:51;8.14;71.19
72772;SHT30;60894;42.544;1.516;2023-11-21T11:15:19;8.12;71.25
72772;SHT30;60894;42.544;1.516;2023-11-21T11:17:46;8.02;72.53
72772;SHT30;60894;42.544;1.516;2023-11-21T11:20:16;8.30;73.98
72772;SHT30;60894;42.544;1.516;2023-11-21T11:22:50;8.29;71.97
72772;SHT30;60894;42.544;1.516;2023-11-21T11:25:30;8.47;73.84
72772;SHT30;60894;42.544;1.516;2023-11-21T11:28:06;8.59;72.98
72772;SHT30;60894;42.544;1.516;2023-11-21T11:30:41;8.50;73.60
72772;SHT30;60894;42.544;1.516;2023-11-21T11:33:24;8.46;72.73
72772;SHT30;60894;42.544;1.516;2023-11-21T11:36:05;8.34;73.60
72772;SHT30;60894;42.544;1.516;2023-11-21T11:38:34;8.28;73.73
72772;SHT30;60894;42.544;1.516;2023-11-21T11:41:04;8.22;74.25
72772;SHT30;60894;42.544;1.516;2023-11-21T11:43:31;7.96;74.39
72772;SHT30;60894;42.544;1.516;2023-11-21T11:46:05;7.82;74.82
72772;SHT30;60894;42.544;1.516;2023-11-21T11:48:35;7.82;74.86
72772;SHT30;60894;42.544;1.516;2023-11-21T11:51:05;7.74;75.04
72772;SHT30;60894;42.544;1.516;2023-11-21T11:53:41;7.72;74.98
72772;SHT30;60894;42.544;1.516;2023-11-21T11:56:25;7.51;75.55
72772;SHT30;60894;42.544;1.516;2023-11-21T11:58:54;7.44;76.33
72772;SHT30;60894;42.544;1.516;2023-11-21T12:01:21;7.41;76.61
72772;SHT30;60894;42.544;1.516;2023-11-21T12:07:00;7.43;77.28
72772;SHT30;60894;42.544;1.516;2023-11-21T12:09:30;7.44;77.49
72772;SHT30;60894;42.544;1.516;2023-11-21T12:11:59;7.35;77.34
72772;SHT30;60894;42.544;1.516;2023-11-21T12:14:26;7.30;76.47
72772;SHT30;60894;42.544;1.516;2023-11-21T12:16:54;7.32;77.23
72772;SHT30;60894;42.544;1.516;2023-11-21T12:19:21;7.41;75.08
72772;SHT30;60894;42.544;1.516;2023-11-21T12:21:49;7.28;74.48
72772;SHT30;60894;42.544;1.516;2023-11-21T12:24:16;7.28;75.68
72772;SHT30;60894;42.544;1.516;2023-11-21T12:26:43;7.28;76.16
72772;SHT30;60894;42.544;1.516;2023-11-21T12:29:12;7.19;73.56
72772;SHT30;60894;42.544;1.516;2023-11-21T12:31:39;7.13;74.53
72772;SHT30;60894;42.544;1.516;2023-11-21T12:34:06;7.13;74.65
72772;SHT30;60894;42.544;1.516;2023-11-21T12:36:37;7.24;76.01
72772;SHT30;60894;42.544;1.516;2023-11-21T12:39:04;7.27;74.63
72772;SHT30;60894;42.544;1.516;2023-11-21T12:41:34;7.21;74.65
72772;SHT30;60894;42.544;1.516;2023-11-21T12:44:01;7.10;75.31
72772;SHT30;60894;42.544;1.516;2023-11-21T12:46:30;7.04;76.85
72772;SHT30;60894;42.544;1.516;2023-11-21T12:48:59;7.10;76.05
72772;SHT30;60894;42.544;1.516;2023-11-21T12:51:26;7.04;74.80
72772;SHT30;60894;42.544;1.516;2023-11-21T12:53:55;7.04;75.91
72772;SHT30;60894;42.544;1.516;2023-11-21T12:56:22;7.16;73.89
72772;SHT30;60894;42.544;1.516;2023-11-21T12:58:50;7.03;72.58
72772;SHT30;60894;42.544;1.516;2023-11-21T13:01:18;7.09;72.85
72772;SHT30;60894;42.544;1.516;2023-11-21T13:03:50;7.09;75.87
72772;SHT30;60894;42.544;1.516;2023-11-21T13:06:17;7.17;78.82
72772;SHT30;60894;42.544;1.516;2023-11-21T13:08:45;6.89;78.43
72772;SHT30;60894;42.544;1.516;2023-11-21T13:11:12;6.68;73.90
72772;SHT30;60894;42.544;1.516;2023-11-21T13:13:41;6.59;73.69
72772;SHT30;60894;42.544;1.516;2023-11-21T13:16:08;6.68;74.48
72772;SHT30;60894;42.544;1.516;2023-11-21T13:18:36;6.86;74.51
72772;SHT30;60894;42.544;1.516;2023-11-21T13:21:05;7.01;76.55
72772;SHT30;60894;42.544;1.516;2023-11-21T13:23:37;6.99;77.14
72772;SHT30;60894;42.544;1.516;2023-11-21T13:26:04;7.11;77.68
72772;SHT30;60894;42.544;1.516;2023-11-21T13:28:32;6.99;79.12
72772;SHT30;60894;42.544;1.516;2023-11-21T13:30:59;6.96;79.86
72772;SHT30;60894;42.544;1.516;2023-11-21T13:33:29;7.07;78.99
72772;SHT30;60894;42.544;1.516;2023-11-21T13:35:58;7.03;77.97
72772;SHT30;60894;42.544;1.516;2023-11-21T13:38:28;7.00;76.99
72772;SHT30;60894;42.544;1.516;2023-11-21T13:40:58;6.99;77.92
72772;SHT30;60894;42.544;1.516;2023-11-21T13:43:25;6.99;78.89
72772;SHT30;60894;42.544;1.516;2023-11-21T13:45:54;7.01;77.54
72772;SHT30;60894;42.544;1.516;2023-11-21T13:48:26;6.99;77.37
72772;SHT30;60894;42.544;1.516;2023-11-21T13:50:59;7.01;76.22
72772;SHT30;60894;42.544;1.516;2023-11-21T13:53:37;7.10;79.11
72772;SHT30;60894;42.544;1.516;2023-11-21T13:56:05;7.10;78.95
72772;SHT30;60894;42.544;1.516;2023-11-21T13:58:32;7.09;75.01
72772;SHT30;60894;42.544;1.516;2023-11-21T14:01:10;7.20;76.20
72772;SHT30;60894;42.544;1.516;2023-11-21T14:03:50;7.34;77.75
72772;SHT30;60894;42.544;1.516;2023-11-21T14:06:23;7.44;79.31
72772;SHT30;60894;42.544;1.516;2023-11-21T14:09:01;7.54;77.84
72772;SHT30;60894;42.544;1.516;2023-11-21T14:11:31;7.68;78.59
72772;SHT30;60894;42.544;1.516;2023-11-21T14:13:59;7.52;74.76
72772;SHT30;60894;42.544;1.516;2023-11-21T14:16:27;7.57;75.24
72772;SHT30;60894;42.544;1.516;2023-11-21T14:18:54;7.55;77.43
72772;SHT30;60894;42.544;1.516;2023-11-21T14:21:27;7.52;76.15
72772;SHT30;60894;42.544;1.516;2023-11-21T14:23:54;7.47;72.16
72772;SHT30;60894;42.544;1.516;2023-11-21T14:26:22;7.34;72.68
72772;SHT30;60894;42.544;1.516;2023-11-21T14:28:50;7.16;74.09
72772;SHT30;60894;42.544;1.516;2023-11-21T14:31:18;7.19;74.33
72772;SHT30;60894;42.544;1.516;2023-11-21T14:33:45;7.14;74.21
72772;SHT30;60894;42.544;1.516;2023-11-21T14:36:12;7.14;77.38
72772;SHT30;60894;42.544;1.516;2023-11-21T14:38:42;7.24;75.91
72772;SHT30;60894;42.544;1.516;2023-11-21T14:41:09;7.20;74.54
72772;SHT30;60894;42.544;1.516;2023-11-21T14:43:38;7.04;75.19
72772;SHT30;60894;42.544;1.516;2023-11-21T14:46:06;6.90;75.14
72772;SHT30;60894;42.544;1.516;2023-11-21T14:48:35;6.96;76.82
72772;SHT30;60894;42.544;1.516;2023-11-21T14:51:08;6.72;75.06
72772;SHT30;60894;42.544;1.516;2023-11-21T14:53:56;6.71;78.24
72772;SHT30;60894;42.544;1.516;2023-11-21T14:56:26;6.79;79.42
72772;SHT30;60894;42.544;1.516;2023-11-21T14:58:58;6.69;77.98
72772;SHT30;60894;42.544;1.516;2023-11-21T15:01:26;6.71;78.70
72772;SHT30;60894;42.544;1.516;2023-11-21T15:04:10;6.64;78.78
72772;SHT30;60894;42.544;1.516;2023-11-21T15:06:46;6.48;78.27
72772;SHT30;60894;42.544;1.516;2023-11-21T15:09:14;6.37;78.39
72772;SHT30;60894;42.544;1.516;2023-11-21T15:11:53;6.44;80.48
72772;SHT30;60894;42.544;1.516;2023-11-21T15:14:29;6.50;80.03
72772;SHT30;60894;42.544;1.516;2023-11-21T15:16:57;6.44;79.10
72772;SHT30;60894;42.544;1.516;2023-11-21T15:19:25;6.34;75.97
72772;SHT30;60894;42.544;1.516;2023-11-21T15:21:53;6.35;75.03
72772;SHT30;60894;42.544;1.516;2023-11-21T15:24:20;6.28;76.49
72772;SHT30;60894;42.544;1.516;2023-11-21T15:26:47;6.11;77.88
72772;SHT30;60894;42.544;1.516;2023-11-21T15:29:15;6.29;78.63
72772;SHT30;60894;42.544;1.516;2023-11-21T15:31:44;6.22;78.74
72772;SHT30;60894;42.544;1.516;2023-11-21T15:34:14;6.04;79.31
72772;SHT30;60894;42.544;1.516;2023-11-21T15:36:41;6.14;80.13
72772;SHT30;60894;42.544;1.516;2023-11-21T15:39:08;6.21;79.32
72772;SHT30;60894;42.544;1.516;2023-11-21T15:41:36;6.17;79.06
72772;SHT30;60894;42.544;1.516;2023-11-21T15:44:05;5.93;78.92
72772;SHT30;60894;42.544;1.516;2023-11-21T15:46:34;5.85;79.98
72772;SHT30;60894;42.544;1.516;2023-11-21T15:49:02;5.73;79.47
72772;SHT30;60894;42.544;1.516;2023-11-21T15:51:38;5.77;80.41
72772;SHT30;60894;42.544;1.516;2023-11-21T15:54:05;5.80;80.22
72772;SHT30;60894;42.544;1.516;2023-11-21T15:56:33;5.80;80.61